sensor_id;sensor_type;location;lat;lon;timestamp;pressure;altitude;pressure_sealevel;temperature;humidity
60489;BME280;46331;49.252;8.904;2023-08-12T00:00:34;99960.16;;;19.11;100.00
60489;BME280;46331;49.252;8.904;2023-08-12T00:01:16;99956.44;;;19.07;100.00
60489;BME280;46331;49.252;8.904;2023-08-12T00:01:57;99955.91;;;19.05;100.00
60489;BME280;46331;49.252;8.904;2023-08-12T00:02:41;99958.59;;;19.05;100.00
60489;BME280;46331;49.252;8.904;2023-08-12T00:03:22;99957.03;;;19.04;100.00
60489;BME280;46331;49.252;8.904;2023-08-12T00:04:02;99954.84;;;19.06;100.00
60489;BME280;46331;49.252;8.904;2023-08-12T00:04:45;99955.06;;;19.09;100.00
60489;BME280;46331;49.252;8.904;2023-08-12T00:05:26;99956.44;;;19.07;100.00
60489;BME280;46331;49.252;8.904;2023-08-12T00:06:06;99956.44;;;19.07;100.00
60489;BME280;46331;49.252;8.904;2023-08-12T00:06:47;99961.38;;;19.00;100.00
60489;BME280;46331;49.252;8.904;2023-08-12T00:07:28;99953.31;;;19.00;100.00
60489;BME280;46331;49.252;8.904;2023-08-12T00:08:09;99952.50;;;18.99;100.00
60489;BME280;46331;49.252;8.904;2023-08-12T00:08:49;99949.59;;;18.96;100.00
60489;BME280;46331;49.252;8.904;2023-08-12T00:09:30;99946.38;;;18.93;100.00
60489;BME280;46331;49.252;8.904;2023-08-12T00:10:11;99947.72;;;18.96;100.00
60489;BME280;46331;49.252;8.904;2023-08-12T00:10:52;99946.09;;;18.95;100.00
60489;BME280;46331;49.252;8.904;2023-08-12T00:11:34;99941.22;;;18.97;100.00
60489;BME280;46331;49.252;8.904;2023-08-12T00:12:15;99938.03;;;18.95;100.00
60489;BME280;46331;49.252;8.904;2023-08-12T00:12:56;99944.50;;;18.94;100.00
60489;BME280;46331;49.252;8.904;2023-08-12T00:13:36;99943.19;;;18.91;100.00
60489;BME280;46331;49.252;8.904;2023-08-12T00:14:17;99946.69;;;18.92;100.00
60489;BME280;46331;49.252;8.904;2023-08-12T00:14:58;99940.50;;;18.91;100.00
60489;BME280;46331;49.252;8.904;2023-08-12T00:15:38;99939.69;;;18.91;100.00
60489;BME280;46331;49.252;8.904;2023-08-12T00:16:21;99938.91;;;18.90;100.00
60489;BME280;46331;49.252;8.904;2023-08-12T00:17:01;99934.03;;;18.92;100.00
60489;BME280;46331;49.252;8.904;2023-08-12T00:17:42;99935.66;;;18.93;100.00
60489;BME280;46331;49.252;8.904;2023-08-12T00:18:23;99935.13;;;18.91;100.00
60489;BME280;46331;49.252;8.904;2023-08-12T00:19:04;99938.63;;;18.92;100.00
60489;BME280;46331;49.252;8.904;2023-08-12T00:19:44;99929.69;;;18.97;100.00
60489;BME280;46331;49.252;8.904;2023-08-12T00:20:25;99937.25;;;18.94;100.00
60489;BME280;46331;49.252;8.904;2023-08-12T00:21:09;99936.69;;;18.98;100.00
60489;BME280;46331;49.252;8.904;2023-08-12T00:21:50;99934.00;;;18.98;100.00
60489;BME280;46331;49.252;8.904;2023-08-12T00:22:33;99931.31;;;18.98;100.00
60489;BME280;46331;49.252;8.904;2023-08-12T00:23:13;99925.94;;;18.98;100.00
60489;BME280;46331;49.252;8.904;2023-08-12T00:23:54;99927.00;;;18.97;100.00
60489;BME280;46331;49.252;8.904;2023-08-12T00:24:35;99923.81;;;18.94;100.00
60489;BME280;46331;49.252;8.904;2023-08-12T00:25:15;99927.41;;;18.85;100.00
60489;BME280;46331;49.252;8.904;2023-08-12T00:25:58;99927.38;;;18.90;100.00
60489;BME280;46331;49.252;8.904;2023-08-12T00:26:39;99930.56;;;18.92;100.00
60489;BME280;46331;49.252;8.904;2023-08-12T00:27:19;99919.50;;;18.93;100.00
60489;BME280;46331;49.252;8.904;2023-08-12T00:28:00;99926.78;;;18.93;100.00
60489;BME280;46331;49.252;8.904;2023-08-12T00:28:41;99923.28;;;18.92;100.00
60489;BME280;46331;49.252;8.904;2023-08-12T00:29:21;99934.03;;;18.92;100.00
60489;BME280;46331;49.252;8.904;2023-08-12T00:30:02;99925.47;;;18.90;100.00
60489;BME280;46331;49.252;8.904;2023-08-12T00:30:43;99919.00;;;18.91;100.00
60489;BME280;46331;49.252;8.904;2023-08-12T00:31:23;99924.38;;;18.91;100.00
60489;BME280;46331;49.252;8.904;2023-08-12T00:32:04;99920.88;;;18.91;100.00
60489;BME280;46331;49.252;8.904;2023-08-12T00:32:46;99919.31;;;18.90;100.00
60489;BME280;46331;49.252;8.904;2023-08-12T00:33:26;99920.09;;;18.90;100.00
60489;BME280;46331;49.252;8.904;2023-08-12T00:34:07;99914.22;;;18.88;100.00
60489;BME280;46331;49.252;8.904;2023-08-12T00:34:47;99915.78;;;18.89;100.00
60489;BME280;46331;49.252;8.904;2023-08-12T00:35:29;99915.78;;;18.89;100.00
60489;BME280;46331;49.252;8.904;2023-08-12T00:36:10;99914.22;;;18.88;100.00
60489;BME280;46331;49.252;8.904;2023-08-12T00:36:50;99920.38;;;18.89;100.00
60489;BME280;46331;49.252;8.904;2023-08-12T00:37:31;99916.66;;;18.85;100.00
60489;BME280;46331;49.252;8.904;2023-08-12T00:38:11;99924.72;;;18.85;100.00
60489;BME280;46331;49.252;8.904;2023-08-12T00:38:52;99927.41;;;18.85;100.00
60489;BME280;46331;49.252;8.904;2023-08-12T00:39:33;99919.59;;;18.83;100.00
60489;BME280;46331;49.252;8.904;2023-08-12T00:40:14;99913.44;;;18.83;100.00
60489;BME280;46331;49.252;8.904;2023-08-12T00:40:54;99919.59;;;18.83;100.00
60489;BME280;46331;49.252;8.904;2023-08-12T00:41:35;99921.78;;;18.81;100.00
60489;BME280;46331;49.252;8.904;2023-08-12T00:42:16;99917.19;;;18.82;100.00
60489;BME280;46331;49.252;8.904;2023-08-12T00:42:56;99928.25;;;18.80;100.00
60489;BME280;46331;49.252;8.904;2023-08-12T00:43:37;99925.34;;;18.76;100.00
60489;BME280;46331;49.252;8.904;2023-08-12T00:44:17;99929.09;;;18.75;100.00
60489;BME280;46331;49.252;8.904;2023-08-12T00:44:58;99924.53;;;18.76;100.00
60489;BME280;46331;49.252;8.904;2023-08-12T00:45:39;99928.81;;;18.77;100.00
60489;BME280;46331;49.252;8.904;2023-08-12T00:46:19;99926.13;;;18.77;100.00
60489;BME280;46331;49.252;8.904;2023-08-12T00:47:00;99930.41;;;18.78;100.00
60489;BME280;46331;49.252;8.904;2023-08-12T00:47:41;99921.56;;;18.77;100.00
60489;BME280;46331;49.252;8.904;2023-08-12T00:48:23;99913.78;;;18.76;100.00
60489;BME280;46331;49.252;8.904;2023-08-12T00:49:04;99912.19;;;18.75;100.00
60489;BME280;46331;49.252;8.904;2023-08-12T00:49:45;99912.47;;;18.73;100.00
60489;BME280;46331;49.252;8.904;2023-08-12T00:50:25;99919.75;;;18.73;100.00
60489;BME280;46331;49.252;8.904;2023-08-12T00:51:06;99918.63;;;18.74;100.00
60489;BME280;46331;49.252;8.904;2023-08-12T00:51:50;99918.13;;;18.72;100.00
60489;BME280;46331;49.252;8.904;2023-08-12T00:52:32;99912.75;;;18.72;100.00
60489;BME280;46331;49.252;8.904;2023-08-12T00:53:14;99917.28;;;18.76;100.00
60489;BME280;46331;49.252;8.904;2023-08-12T00:53:57;99910.81;;;18.77;100.00
60489;BME280;46331;49.252;8.904;2023-08-12T00:54:38;99915.91;;;18.79;100.00
60489;BME280;46331;49.252;8.904;2023-08-12T00:55:19;99920.47;;;18.79;100.00
60489;BME280;46331;49.252;8.904;2023-08-12T00:56:00;99912.41;;;18.79;100.00
60489;BME280;46331;49.252;8.904;2023-08-12T00:56:41;99919.38;;;18.80;100.00
60489;BME280;46331;49.252;8.904;2023-08-12T00:57:22;99918.88;;;18.77;100.00
60489;BME280;46331;49.252;8.904;2023-08-12T00:58:03;99913.22;;;18.79;100.00
60489;BME280;46331;49.252;8.904;2023-08-12T00:58:44;99917.28;;;18.76;100.00
60489;BME280;46331;49.252;8.904;2023-08-12T00:59:26;99913.50;;;18.77;100.00
60489;BME280;46331;49.252;8.904;2023-08-12T01:00:07;99916.97;;;18.78;100.00
60489;BME280;46331;49.252;8.904;2023-08-12T01:00:48;99913.22;;;18.79;100.00
60489;BME280;46331;49.252;8.904;2023-08-12T01:01:29;99902.47;;;18.79;100.00
60489;BME280;46331;49.252;8.904;2023-08-12T01:02:12;99909.97;;;18.82;100.00
60489;BME280;46331;49.252;8.904;2023-08-12T01:02:53;99902.97;;;18.81;100.00
60489;BME280;46331;49.252;8.904;2023-08-12T01:03:34;99909.72;;;18.79;100.00
60489;BME280;46331;49.252;8.904;2023-08-12T01:04:15;99901.94;;;18.77;100.00
60489;BME280;46331;49.252;8.904;2023-08-12T01:04:55;99903.84;;;18.76;100.00
60489;BME280;46331;49.252;8.904;2023-08-12T01:05:36;99902.81;;;18.72;100.00
60489;BME280;46331;49.252;8.904;2023-08-12T01:06:16;99897.72;;;18.71;100.00
60489;BME280;46331;49.252;8.904;2023-08-12T01:06:57;99902.00;;;18.72;100.00
60489;BME280;46331;49.252;8.904;2023-08-12T01:07:37;99898.00;;;18.69;100.00
60489;BME280;46331;49.252;8.904;2023-08-12T01:08:18;99898.28;;;18.68;100.00
60489;BME280;46331;49.252;8.904;2023-08-12T01:08:59;99903.38;;;18.69;100.00
60489;BME280;46331;49.252;8.904;2023-08-12T01:09:40;99902.59;;;18.69;100.00
60489;BME280;46331;49.252;8.904;2023-08-12T01:10:23;99902.09;;;18.67;100.00
60489;BME280;46331;49.252;8.904;2023-08-12T01:11:28;99894.81;;;18.67;100.00
60489;BME280;46331;49.252;8.904;2023-08-12T01:12:13;99902.94;;;18.62;100.00
60489;BME280;46331;49.252;8.904;2023-08-12T01:13:23;99898.06;;;18.64;100.00
60489;BME280;46331;49.252;8.904;2023-08-12T01:14:14;99903.16;;;18.66;100.00
60489;BME280;46331;49.252;8.904;2023-08-12T01:15:20;99902.59;;;18.69;100.00
60489;BME280;46331;49.252;8.904;2023-08-12T01:16:05;99902.28;;;18.70;100.00
60489;BME280;46331;49.252;8.904;2023-08-12T01:16:51;99901.22;;;18.71;100.00
60489;BME280;46331;49.252;8.904;2023-08-12T01:17:34;99900.13;;;18.72;100.00
60489;BME280;46331;49.252;8.904;2023-08-12T01:18:16;99905.00;;;18.70;100.00
60489;BME280;46331;49.252;8.904;2023-08-12T01:19:00;99902.00;;;18.72;100.00
60489;BME280;46331;49.252;8.904;2023-08-12T01:19:42;99898.97;;;18.79;100.00
60489;BME280;46331;49.252;8.904;2023-08-12T01:20:23;99896.00;;;18.80;100.00
60489;BME280;46331;49.252;8.904;2023-08-12T01:21:07;99888.19;;;18.84;100.00
60489;BME280;46331;49.252;8.904;2023-08-12T01:21:53;99892.47;;;18.85;100.00
60489;BME280;46331;49.252;8.904;2023-08-12T01:22:37;99895.41;;;18.88;100.00
60489;BME280;46331;49.252;8.904;2023-08-12T01:23:20;99894.59;;;18.88;100.00
60489;BME280;46331;49.252;8.904;2023-08-12T01:24:00;99896.97;;;18.89;100.00
60489;BME280;46331;49.252;8.904;2023-08-12T01:24:42;99895.13;;;18.90;100.00
60489;BME280;46331;49.252;8.904;2023-08-12T01:25:25;99887.06;;;18.90;100.00
60489;BME280;46331;49.252;8.904;2023-08-12T01:26:06;99887.34;;;18.88;100.00
60489;BME280;46331;49.252;8.904;2023-08-12T01:26:47;99892.44;;;18.90;100.00
60489;BME280;46331;49.252;8.904;2023-08-12T01:27:27;99892.94;;;18.92;100.00
60489;BME280;46331;49.252;8.904;2023-08-12T01:28:08;99886.47;;;18.93;100.00
60489;BME280;46331;49.252;8.904;2023-08-12T01:28:50;99889.16;;;18.93;100.00
60489;BME280;46331;49.252;8.904;2023-08-12T01:29:41;99886.19;;;18.94;100.00
60489;BME280;46331;49.252;8.904;2023-08-12T01:30:21;99886.47;;;18.93;100.00
60489;BME280;46331;49.252;8.904;2023-08-12T01:31:11;99882.38;;;18.96;100.00
60489;BME280;46331;49.252;8.904;2023-08-12T01:31:56;99886.69;;;18.97;100.00
60489;BME280;46331;49.252;8.904;2023-08-12T01:33:00;99890.75;;;18.94;100.00
60489;BME280;46331;49.252;8.904;2023-08-12T01:34:08;99880.16;;;19.03;100.00
60489;BME280;46331;49.252;8.904;2023-08-12T01:35:01;99885.53;;;19.03;100.00
60489;BME280;46331;49.252;8.904;2023-08-12T01:35:47;99885.31;;;18.99;100.00
60489;BME280;46331;49.252;8.904;2023-08-12T01:36:31;99887.78;;;18.96;100.00
60489;BME280;46331;49.252;8.904;2023-08-12T01:37:21;99885.16;;;18.90;100.00
60489;BME280;46331;49.252;8.904;2023-08-12T01:38:05;99883.84;;;18.88;100.00
60489;BME280;46331;49.252;8.904;2023-08-12T01:38:46;99881.44;;;18.86;100.00
60489;BME280;46331;49.252;8.904;2023-08-12T01:39:32;99886.22;;;18.89;100.00
60489;BME280;46331;49.252;8.904;2023-08-12T01:40:15;99876.00;;;18.91;100.00
60489;BME280;46331;49.252;8.904;2023-08-12T01:40:58;99882.38;;;18.96;100.00
60489;BME280;46331;49.252;8.904;2023-08-12T01:41:39;99877.56;;;18.98;100.00
60489;BME280;46331;49.252;8.904;2023-08-12T01:42:20;99875.34;;;19.00;100.00
60489;BME280;46331;49.252;8.904;2023-08-12T01:43:03;99877.47;;;19.03;100.00
60489;BME280;46331;49.252;8.904;2023-08-12T01:43:44;99874.78;;;19.03;100.00
60489;BME280;46331;49.252;8.904;2023-08-12T01:44:25;99874.78;;;19.03;100.00
60489;BME280;46331;49.252;8.904;2023-08-12T01:45:06;99872.59;;;19.05;100.00
60489;BME280;46331;49.252;8.904;2023-08-12T01:45:47;99874.19;;;19.06;100.00
60489;BME280;46331;49.252;8.904;2023-08-12T01:46:28;99878.50;;;19.07;100.00
60489;BME280;46331;49.252;8.904;2023-08-12T01:47:09;99874.19;;;19.06;100.00
60489;BME280;46331;49.252;8.904;2023-08-12T01:47:49;99872.84;;;19.08;100.00
60489;BME280;46331;49.252;8.904;2023-08-12T01:48:31;99872.53;;;19.10;100.00
60489;BME280;46331;49.252;8.904;2023-08-12T01:49:12;99876.81;;;19.11;100.00
60489;BME280;46331;49.252;8.904;2023-08-12T01:49:52;99876.81;;;19.11;100.00
60489;BME280;46331;49.252;8.904;2023-08-12T01:50:33;99885.41;;;19.13;100.00
60489;BME280;46331;49.252;8.904;2023-08-12T01:51:13;99884.28;;;19.14;100.00
60489;BME280;46331;49.252;8.904;2023-08-12T01:51:54;99875.44;;;19.14;100.00
60489;BME280;46331;49.252;8.904;2023-08-12T01:52:37;99883.22;;;19.15;100.00
60489;BME280;46331;49.252;8.904;2023-08-12T01:53:18;99884.28;;;19.14;100.00
60489;BME280;46331;49.252;8.904;2023-08-12T01:53:58;99879.44;;;19.16;100.00
60489;BME280;46331;49.252;8.904;2023-08-12T01:54:39;99886.19;;;19.14;100.00
60489;BME280;46331;49.252;8.904;2023-08-12T01:55:20;99880.03;;;19.13;100.00
60489;BME280;46331;49.252;8.904;2023-08-12T01:56:01;99885.97;;;19.10;100.00
60489;BME280;46331;49.252;8.904;2023-08-12T01:56:42;99875.00;;;19.06;100.00
60489;BME280;46331;49.252;8.904;2023-08-12T01:57:22;99879.28;;;19.07;100.00
60489;BME280;46331;49.252;8.904;2023-08-12T01:58:03;99891.66;;;19.08;100.00
60489;BME280;46331;49.252;8.904;2023-08-12T01:58:44;99885.97;;;19.10;100.00
60489;BME280;46331;49.252;8.904;2023-08-12T01:59:24;99880.91;;;19.08;100.00
60489;BME280;46331;49.252;8.904;2023-08-12T02:00:05;99884.38;;;19.09;100.00
60489;BME280;46331;49.252;8.904;2023-08-12T02:00:57;99879.22;;;19.12;100.00
60489;BME280;46331;49.252;8.904;2023-08-12T02:01:37;99884.28;;;19.14;100.00
60489;BME280;46331;49.252;8.904;2023-08-12T02:02:18;99881.59;;;19.14;100.00
60489;BME280;46331;49.252;8.904;2023-08-12T02:02:58;99882.91;;;19.17;100.00
60489;BME280;46331;49.252;8.904;2023-08-12T02:03:39;99879.94;;;19.18;100.00
60489;BME280;46331;49.252;8.904;2023-08-12T02:04:21;99886.13;;;19.19;100.00
60489;BME280;46331;49.252;8.904;2023-08-12T02:05:01;99888.50;;;19.20;100.00
60489;BME280;46331;49.252;8.904;2023-08-12T02:05:42;99883.66;;;19.22;100.00
60489;BME280;46331;49.252;8.904;2023-08-12T02:06:24;99879.38;;;19.21;100.00
60489;BME280;46331;49.252;8.904;2023-08-12T02:07:04;99886.06;;;19.24;100.00
60489;BME280;46331;49.252;8.904;2023-08-12T02:07:45;99875.31;;;19.24;100.00
60489;BME280;46331;49.252;8.904;2023-08-12T02:08:25;99884.16;;;19.24;100.00
60489;BME280;46331;49.252;8.904;2023-08-12T02:09:06;99882.78;;;19.27;100.00
60489;BME280;46331;49.252;8.904;2023-08-12T02:09:46;99878.69;;;19.29;100.00
60489;BME280;46331;49.252;8.904;2023-08-12T02:10:27;99881.91;;;19.32;100.00
60489;BME280;46331;49.252;8.904;2023-08-12T02:11:07;99884.31;;;19.33;100.00
60489;BME280;46331;49.252;8.904;2023-08-12T02:11:49;99884.81;;;19.35;100.00
60489;BME280;46331;49.252;8.904;2023-08-12T02:12:30;99881.03;;;19.36;100.00
60489;BME280;46331;49.252;8.904;2023-08-12T02:13:10;99887.72;;;19.39;100.00
60489;BME280;46331;49.252;8.904;2023-08-12T02:13:51;99885.84;;;19.39;100.00
60489;BME280;46331;49.252;8.904;2023-08-12T02:14:31;99878.56;;;19.40;100.00
60489;BME280;46331;49.252;8.904;2023-08-12T02:15:12;99880.16;;;19.41;100.00
60489;BME280;46331;49.252;8.904;2023-08-12T02:15:52;99883.66;;;19.41;100.00
60489;BME280;46331;49.252;8.904;2023-08-12T02:16:33;99875.88;;;19.40;100.00
60489;BME280;46331;49.252;8.904;2023-08-12T02:17:13;99880.16;;;19.41;100.00
60489;BME280;46331;49.252;8.904;2023-08-12T02:17:54;99878.56;;;19.40;100.00
60489;BME280;46331;49.252;8.904;2023-08-12T02:18:35;99874.78;;;19.41;100.00
60489;BME280;46331;49.252;8.904;2023-08-12T02:19:15;99872.97;;;19.36;100.00
60489;BME280;46331;49.252;8.904;2023-08-12T02:19:56;99870.78;;;19.38;100.00
60489;BME280;46331;49.252;8.904;2023-08-12T02:20:36;99879.13;;;19.37;100.00
60489;BME280;46331;49.252;8.904;2023-08-12T02:21:17;99880.75;;;19.38;100.00
60489;BME280;46331;49.252;8.904;2023-08-12T02:21:58;99872.09;;;19.41;100.00
60489;BME280;46331;49.252;8.904;2023-08-12T02:22:39;99875.66;;;19.36;100.00
60489;BME280;46331;49.252;8.904;2023-08-12T02:23:20;99872.16;;;19.36;100.00
60489;BME280;46331;49.252;8.904;2023-08-12T02:24:00;99874.56;;;19.37;100.00
60489;BME280;46331;49.252;8.904;2023-08-12T02:24:41;99886.13;;;19.38;100.00
60489;BME280;46331;49.252;8.904;2023-08-12T02:25:21;99879.34;;;19.40;100.00
60489;BME280;46331;49.252;8.904;2023-08-12T02:26:02;99882.56;;;19.42;100.00
60489;BME280;46331;49.252;8.904;2023-08-12T02:26:43;99870.97;;;19.42;100.00
60489;BME280;46331;49.252;8.904;2023-08-12T02:27:23;99877.97;;;19.43;100.00
60489;BME280;46331;49.252;8.904;2023-08-12T02:28:05;99876.88;;;19.44;100.00
60489;BME280;46331;49.252;8.904;2023-08-12T02:28:45;99871.22;;;19.45;100.00
60489;BME280;46331;49.252;8.904;2023-08-12T02:29:26;99876.59;;;19.45;100.00
60489;BME280;46331;49.252;8.904;2023-08-12T02:30:07;99875.50;;;19.46;100.00
60489;BME280;46331;49.252;8.904;2023-08-12T02:30:48;99869.03;;;19.47;100.00
60489;BME280;46331;49.252;8.904;2023-08-12T02:31:28;99867.13;;;19.48;100.00
60489;BME280;46331;49.252;8.904;2023-08-12T02:32:09;99875.50;;;19.46;100.00
60489;BME280;46331;49.252;8.904;2023-08-12T02:32:49;99872.00;;;19.46;100.00
60489;BME280;46331;49.252;8.904;2023-08-12T02:33:30;99864.22;;;19.44;100.00
60489;BME280;46331;49.252;8.904;2023-08-12T02:34:10;99874.19;;;19.44;100.00
60489;BME280;46331;49.252;8.904;2023-08-12T02:34:51;99871.50;;;19.44;100.00
60489;BME280;46331;49.252;8.904;2023-08-12T02:35:32;99873.09;;;19.45;100.00
60489;BME280;46331;49.252;8.904;2023-08-12T02:36:12;99874.19;;;19.44;100.00
60489;BME280;46331;49.252;8.904;2023-08-12T02:36:53;99872.88;;;19.41;100.00
60489;BME280;46331;49.252;8.904;2023-08-12T02:37:33;99872.38;;;19.39;100.00
60489;BME280;46331;49.252;8.904;2023-08-12T02:38:14;99865.91;;;19.40;100.00
60489;BME280;46331;49.252;8.904;2023-08-12T02:38:55;99872.31;;;19.44;100.00
60489;BME280;46331;49.252;8.904;2023-08-12T02:39:35;99869.91;;;19.43;100.00
60489;BME280;46331;49.252;8.904;2023-08-12T02:40:16;99856.94;;;19.45;100.00
60489;BME280;46331;49.252;8.904;2023-08-12T02:40:56;99868.81;;;19.44;100.00
60489;BME280;46331;49.252;8.904;2023-08-12T02:41:37;99867.41;;;19.46;100.00
60489;BME280;46331;49.252;8.904;2023-08-12T02:42:18;99865.53;;;19.47;100.00
60489;BME280;46331;49.252;8.904;2023-08-12T02:42:58;99869.53;;;19.50;100.00
60489;BME280;46331;49.252;8.904;2023-08-12T02:43:39;99868.22;;;19.47;100.00
60489;BME280;46331;49.252;8.904;2023-08-12T02:44:19;99866.84;;;19.50;100.00
60489;BME280;46331;49.252;8.904;2023-08-12T02:45:00;99866.84;;;19.50;100.00
60489;BME280;46331;49.252;8.904;2023-08-12T02:45:40;99866.84;;;19.50;100.00
60489;BME280;46331;49.252;8.904;2023-08-12T02:46:21;99865.59;;;19.42;100.00
60489;BME280;46331;49.252;8.904;2023-08-12T02:47:01;99870.69;;;19.43;100.00
60489;BME280;46331;49.252;8.904;2023-08-12T02:47:42;99865.03;;;19.45;100.00
60489;BME280;46331;49.252;8.904;2023-08-12T02:48:23;99864.22;;;19.44;100.00
60489;BME280;46331;49.252;8.904;2023-08-12T02:49:04;99860.75;;;19.44;100.00
60489;BME280;46331;49.252;8.904;2023-08-12T02:49:44;99859.44;;;19.41;100.00
60489;BME280;46331;49.252;8.904;2023-08-12T02:50:25;99863.75;;;19.42;100.00
60489;BME280;46331;49.252;8.904;2023-08-12T02:51:05;99861.34;;;19.41;100.00
60489;BME280;46331;49.252;8.904;2023-08-12T02:51:46;99866.44;;;19.42;100.00
60489;BME280;46331;49.252;8.904;2023-08-12T02:52:27;99861.84;;;19.43;100.00
60489;BME280;46331;49.252;8.904;2023-08-12T02:53:07;99857.25;;;19.43;100.00
60489;BME280;46331;49.252;8.904;2023-08-12T02:53:48;99859.44;;;19.41;100.00
60489;BME280;46331;49.252;8.904;2023-08-12T02:54:29;99854.06;;;19.41;100.00
60489;BME280;46331;49.252;8.904;2023-08-12T02:55:09;99858.41;;;19.37;100.00
60489;BME280;46331;49.252;8.904;2023-08-12T02:55:50;99859.22;;;19.38;100.00
60489;BME280;46331;49.252;8.904;2023-08-12T02:56:31;99854.34;;;19.40;100.00
60489;BME280;46331;49.252;8.904;2023-08-12T02:57:11;99860.81;;;19.39;100.00
60489;BME280;46331;49.252;8.904;2023-08-12T02:57:52;99860.81;;;19.39;100.00
60489;BME280;46331;49.252;8.904;2023-08-12T02:58:32;99856.75;;;19.41;100.00
60489;BME280;46331;49.252;8.904;2023-08-12T02:59:14;99852.16;;;19.42;100.00
60489;BME280;46331;49.252;8.904;2023-08-12T02:59:55;99851.38;;;19.41;100.00
60489;BME280;46331;49.252;8.904;2023-08-12T03:00:35;99850.59;;;19.41;100.00
60489;BME280;46331;49.252;8.904;2023-08-12T03:01:16;99860.03;;;19.38;100.00
60489;BME280;46331;49.252;8.904;2023-08-12T03:01:57;99856.25;;;19.39;100.00
60489;BME280;46331;49.252;8.904;2023-08-12T03:02:37;99853.84;;;19.38;100.00
60489;BME280;46331;49.252;8.904;2023-08-12T03:03:18;99852.25;;;19.37;100.00
60489;BME280;46331;49.252;8.904;2023-08-12T03:03:58;99854.66;;;19.38;100.00
60489;BME280;46331;49.252;8.904;2023-08-12T03:04:39;99859.22;;;19.38;100.00
60489;BME280;46331;49.252;8.904;2023-08-12T03:05:20;99856.53;;;19.38;100.00
60489;BME280;46331;49.252;8.904;2023-08-12T03:06:01;99857.13;;;19.35;100.00
60489;BME280;46331;49.252;8.904;2023-08-12T03:06:43;99850.13;;;19.34;100.00
60489;BME280;46331;49.252;8.904;2023-08-12T03:07:24;99858.72;;;19.36;100.00
60489;BME280;46331;49.252;8.904;2023-08-12T03:08:05;99851.47;;;19.36;100.00
60489;BME280;46331;49.252;8.904;2023-08-12T03:08:46;99853.31;;;19.36;100.00
60489;BME280;46331;49.252;8.904;2023-08-12T03:09:27;99852.25;;;19.37;100.00
60489;BME280;46331;49.252;8.904;2023-08-12T03:10:08;99852.84;;;19.34;100.00
60489;BME280;46331;49.252;8.904;2023-08-12T03:10:48;99852.03;;;19.33;100.00
60489;BME280;46331;49.252;8.904;2023-08-12T03:11:30;99856.09;;;19.30;100.00
60489;BME280;46331;49.252;8.904;2023-08-12T03:12:12;99857.72;;;19.32;100.00
60489;BME280;46331;49.252;8.904;2023-08-12T03:12:53;99857.13;;;19.35;100.00
60489;BME280;46331;49.252;8.904;2023-08-12T03:13:34;99853.63;;;19.34;100.00
60489;BME280;46331;49.252;8.904;2023-08-12T03:14:16;99858.50;;;19.32;100.00
60489;BME280;46331;49.252;8.904;2023-08-12T03:14:56;99856.69;;;19.27;100.00
60489;BME280;46331;49.252;8.904;2023-08-12T03:15:40;99857.19;;;19.29;100.00
60489;BME280;46331;49.252;8.904;2023-08-12T03:16:21;99861.47;;;19.30;100.00
60489;BME280;46331;49.252;8.904;2023-08-12T03:17:02;99865.53;;;19.28;100.00
60489;BME280;46331;49.252;8.904;2023-08-12T03:17:44;99864.56;;;19.24;100.00
60489;BME280;46331;49.252;8.904;2023-08-12T03:18:25;99866.41;;;19.23;100.00
60489;BME280;46331;49.252;8.904;2023-08-12T03:19:06;99866.38;;;19.28;100.00
60489;BME280;46331;49.252;8.904;2023-08-12T03:19:47;99872.75;;;19.33;100.00
60489;BME280;46331;49.252;8.904;2023-08-12T03:20:28;99868.97;;;19.34;100.00
60489;BME280;46331;49.252;8.904;2023-08-12T03:21:10;99871.16;;;19.32;100.00
60489;BME280;46331;49.252;8.904;2023-08-12T03:21:50;99869.56;;;19.30;100.00
60489;BME280;46331;49.252;8.904;2023-08-12T03:22:31;99869.06;;;19.28;100.00
60489;BME280;46331;49.252;8.904;2023-08-12T03:23:12;99870.63;;;19.29;100.00
60489;BME280;46331;49.252;8.904;2023-08-12T03:23:54;99870.34;;;19.31;100.00
60489;BME280;46331;49.252;8.904;2023-08-12T03:24:34;99873.91;;;19.26;100.00
60489;BME280;46331;49.252;8.904;2023-08-12T03:25:15;99873.03;;;19.31;100.00
60489;BME280;46331;49.252;8.904;2023-08-12T03:25:57;99870.91;;;19.28;100.00
60489;BME280;46331;49.252;8.904;2023-08-12T03:26:38;99869.34;;;19.27;100.00
60489;BME280;46331;49.252;8.904;2023-08-12T03:27:19;99875.31;;;19.24;100.00
60489;BME280;46331;49.252;8.904;2023-08-12T03:28:03;99872.97;;;19.17;100.00
60489;BME280;46331;49.252;8.904;2023-08-12T03:28:44;99871.88;;;19.18;100.00
60489;BME280;46331;49.252;8.904;2023-08-12T03:29:28;99874.28;;;19.20;100.00
60489;BME280;46331;49.252;8.904;2023-08-12T03:30:09;99868.91;;;19.20;100.00
60489;BME280;46331;49.252;8.904;2023-08-12T03:30:51;99874.78;;;19.22;100.00
60489;BME280;46331;49.252;8.904;2023-08-12T03:31:34;99876.97;;;19.20;100.00
60489;BME280;46331;49.252;8.904;2023-08-12T03:32:14;99875.34;;;19.19;100.00
60489;BME280;46331;49.252;8.904;2023-08-12T03:32:56;99872.53;;;19.10;100.00
60489;BME280;46331;49.252;8.904;2023-08-12T03:33:37;99873.53;;;19.14;100.00
60489;BME280;46331;49.252;8.904;2023-08-12T03:34:18;99869.28;;;19.13;100.00
60489;BME280;46331;49.252;8.904;2023-08-12T03:34:59;99874.41;;;19.09;100.00
60489;BME280;46331;49.252;8.904;2023-08-12T03:35:45;99867.66;;;19.12;100.00
60489;BME280;46331;49.252;8.904;2023-08-12T03:36:27;99869.56;;;19.11;100.00
60489;BME280;46331;49.252;8.904;2023-08-12T03:37:07;99871.44;;;19.11;100.00
60489;BME280;46331;49.252;8.904;2023-08-12T03:37:48;99866.06;;;19.11;100.00
60489;BME280;46331;49.252;8.904;2023-08-12T03:38:29;99859.88;;;19.10;100.00